createdAt,value
2023-05-15T00:02:26.889Z,100232.00
2023-05-15T00:04:54.377Z,100233.00
2023-05-15T00:07:21.705Z,100235.00
2023-05-15T00:09:48.919Z,100234.00
2023-05-15T00:12:16.029Z,100225.00
2023-05-15T00:14:43.150Z,100225.00
2023-05-15T00:17:10.710Z,100228.00
2023-05-15T00:19:38.713Z,100219.00
2023-05-15T00:22:06.075Z,100209.00
2023-05-15T00:24:34.961Z,100214.00
2023-05-15T00:27:03.302Z,100206.00
2023-05-15T00:29:30.498Z,100218.00
2023-05-15T00:31:57.679Z,100215.00
2023-05-15T00:34:25.721Z,100204.00
2023-05-15T00:36:52.853Z,100199.00
2023-05-15T00:39:19.824Z,100213.00
2023-05-15T00:41:50.062Z,100199.00
2023-05-15T00:44:20.118Z,100205.00
2023-05-15T00:46:49.432Z,100208.00
2023-05-15T00:49:20.771Z,100198.00
2023-05-15T00:51:47.771Z,100199.00
2023-05-15T00:54:14.943Z,100199.00
2023-05-15T00:56:46.048Z,100189.00
2023-05-15T00:59:13.849Z,100193.00
2023-05-15T01:01:40.784Z,100196.00
2023-05-15T01:04:07.814Z,100176.00
2023-05-15T01:06:34.853Z,100193.00
2023-05-15T01:09:04.315Z,100185.00
2023-05-15T01:11:38.244Z,100175.00
2023-05-15T01:14:08.093Z,100179.00
2023-05-15T01:16:36.370Z,100170.00
2023-05-15T01:19:05.055Z,100172.00
2023-05-15T01:21:35.031Z,100163.00
2023-05-15T01:24:41.930Z,100152.00
2023-05-15T01:27:24.532Z,100158.00
2023-05-15T01:30:17.622Z,100152.00
2023-05-15T01:33:12.282Z,100158.00
2023-05-15T01:35:49.620Z,100153.00
2023-05-15T01:38:46.303Z,100146.00
2023-05-15T01:42:06.637Z,100148.00
2023-05-15T01:44:40.369Z,100141.00
2023-05-15T01:47:18.092Z,100136.00
2023-05-15T01:49:46.760Z,100135.00
2023-05-15T01:52:25.619Z,100122.00
2023-05-15T01:54:55.201Z,100131.00
2023-05-15T01:57:24.686Z,100118.00
2023-05-15T01:59:52.037Z,100131.00
2023-05-15T02:02:19.935Z,100129.00
2023-05-15T02:04:49.454Z,100121.00
2023-05-15T02:07:17.706Z,100117.00
2023-05-15T02:09:45.674Z,100114.00
2023-05-15T02:12:13.624Z,100116.00
2023-05-15T02:14:41.605Z,100113.00
2023-05-15T02:17:08.657Z,100102.00
2023-05-15T02:19:35.967Z,100107.00
2023-05-15T02:22:03.740Z,100096.00
2023-05-15T02:24:30.660Z,100099.00
2023-05-15T02:27:20.656Z,100101.00
2023-05-15T02:30:08.653Z,100098.00
2023-05-15T02:33:14.940Z,100092.00
2023-05-15T02:36:09.840Z,100086.00
2023-05-15T02:38:48.744Z,100089.00
2023-05-15T02:41:17.048Z,100084.00
2023-05-15T02:43:49.154Z,100084.00
2023-05-15T02:46:17.868Z,100089.00
2023-05-15T02:48:46.234Z,100078.00
2023-05-15T02:51:14.388Z,100075.00
2023-05-15T02:53:43.145Z,100074.00
2023-05-15T02:56:10.633Z,100074.00
2023-05-15T02:58:39.469Z,100059.00
2023-05-15T03:01:07.009Z,100054.00
2023-05-15T03:03:34.427Z,100050.00
2023-05-15T03:06:01.572Z,100043.00
2023-05-15T03:08:29.133Z,100045.00
2023-05-15T03:10:56.181Z,100029.00
2023-05-15T03:13:23.141Z,100028.00
2023-05-15T03:15:50.438Z,100021.00
2023-05-15T03:18:18.918Z,100018.00
2023-05-15T03:20:48.564Z,100016.00
2023-05-15T03:23:15.773Z,100018.00
2023-05-15T03:25:42.875Z,100017.00
2023-05-15T03:28:10.350Z,100010.00
2023-05-15T03:30:37.613Z,100003.00
2023-05-15T03:33:05.358Z,100010.00
2023-05-15T03:35:32.579Z,99999.00
2023-05-15T03:38:00.155Z,99995.00
2023-05-15T03:40:27.299Z,99965.00
2023-05-15T03:42:54.549Z,99998.00
2023-05-15T03:45:21.869Z,100003.00
2023-05-15T03:47:49.192Z,99989.00
2023-05-15T03:50:16.675Z,99992.00
2023-05-15T03:52:43.825Z,99966.00
2023-05-15T03:55:10.942Z,99985.00
2023-05-15T03:57:37.955Z,99988.00
2023-05-15T04:00:10.366Z,99984.00
2023-05-15T04:02:38.291Z,99990.00
2023-05-15T04:05:06.885Z,99991.00
2023-05-15T04:07:35.416Z,99982.00
2023-05-15T04:10:03.257Z,99980.00
2023-05-15T04:12:33.721Z,99982.00
2023-05-15T04:15:19.578Z,99991.00
2023-05-15T04:17:48.705Z,99981.00
2023-05-15T04:20:20.676Z,99975.00
2023-05-15T04:22:48.347Z,99972.00
2023-05-15T04:25:16.595Z,99979.00
2023-05-15T04:27:44.844Z,99973.00
2023-05-15T04:30:13.393Z,99974.00
2023-05-15T04:32:41.403Z,99980.00
2023-05-15T04:35:11.931Z,99975.00
2023-05-15T04:37:40.906Z,99980.00
2023-05-15T04:40:09.736Z,99972.00
2023-05-15T04:42:39.074Z,99973.00
2023-05-15T04:45:07.975Z,99964.00
2023-05-15T04:47:35.964Z,99973.00
2023-05-15T04:50:03.462Z,99973.00
2023-05-15T04:52:30.509Z,99968.00
2023-05-15T04:54:57.774Z,99960.00
2023-05-15T04:57:25.798Z,99951.00
2023-05-15T04:59:53.288Z,99962.00
2023-05-15T05:02:24.037Z,99958.00
2023-05-15T05:04:51.488Z,99952.00
2023-05-15T05:07:18.828Z,99955.00
2023-05-15T05:09:45.992Z,99948.00
2023-05-15T05:12:13.130Z,99942.00
2023-05-15T05:14:44.732Z,99938.00
2023-05-15T05:17:12.241Z,99932.00
2023-05-15T05:19:39.586Z,99944.00
2023-05-15T05:22:07.738Z,99939.00
2023-05-15T05:24:38.155Z,99930.00
2023-05-15T05:27:05.770Z,99921.00
2023-05-15T05:29:33.207Z,99940.00
2023-05-15T05:32:00.590Z,99953.00
2023-05-15T05:34:28.365Z,99956.00
2023-05-15T05:36:55.408Z,99943.00
2023-05-15T05:39:22.479Z,99951.00
2023-05-15T05:41:49.605Z,99971.00
2023-05-15T05:44:16.760Z,99974.00
2023-05-15T05:46:45.545Z,99955.00
2023-05-15T05:49:12.605Z,99934.00
2023-05-15T05:51:39.701Z,99952.00
2023-05-15T05:54:07.297Z,99960.00
2023-05-15T05:56:34.384Z,99950.00
2023-05-15T05:59:02.025Z,99907.00
2023-05-15T06:01:29.464Z,99894.00
2023-05-15T06:03:57.537Z,99870.00
2023-05-15T06:06:24.747Z,99893.00
2023-05-15T06:08:53.156Z,99891.00
2023-05-15T06:11:23.793Z,99910.00
2023-05-15T06:13:52.745Z,99902.00
2023-05-15T06:16:20.067Z,99893.00
2023-05-15T06:18:47.508Z,99899.00
2023-05-15T06:21:14.999Z,99904.00
2023-05-15T06:23:42.014Z,99904.00
2023-05-15T06:26:09.211Z,99904.00
2023-05-15T06:28:36.219Z,99897.00
2023-05-15T06:31:03.437Z,99904.00
2023-05-15T06:33:31.260Z,99895.00
2023-05-15T06:35:58.202Z,99898.00
2023-05-15T06:38:25.324Z,99894.00
2023-05-15T06:40:52.314Z,99892.00
2023-05-15T06:43:19.251Z,99888.00
2023-05-15T06:45:46.235Z,99870.00
2023-05-15T06:48:13.400Z,99883.00
2023-05-15T06:50:40.596Z,99879.00
2023-05-15T06:53:07.768Z,99881.00
2023-05-15T06:55:36.521Z,99884.00
2023-05-15T06:58:04.406Z,99874.00
2023-05-15T07:00:31.517Z,99872.00
2023-05-15T07:02:58.676Z,99875.00
2023-05-15T07:05:25.858Z,99867.00
2023-05-15T07:07:53.028Z,99870.00
2023-05-15T07:10:20.073Z,99876.00
2023-05-15T07:12:47.100Z,99885.00
2023-05-15T07:15:14.060Z,99908.00
2023-05-15T07:17:41.284Z,99898.00
2023-05-15T07:20:09.047Z,99904.00
2023-05-15T07:22:44.632Z,99907.00
2023-05-15T07:25:17.138Z,99917.00
2023-05-15T07:27:44.858Z,99907.00
2023-05-15T07:30:12.520Z,99900.00
2023-05-15T07:32:39.688Z,99895.00
2023-05-15T07:35:07.260Z,99877.00
2023-05-15T07:37:34.292Z,99905.00
2023-05-15T07:40:01.355Z,99890.00
2023-05-15T07:42:28.490Z,99894.00
2023-05-15T07:44:55.562Z,99904.00
2023-05-15T07:47:22.730Z,99894.00
2023-05-15T07:49:49.774Z,99898.00
2023-05-15T07:52:16.904Z,99887.00
2023-05-15T07:54:44.560Z,99898.00
2023-05-15T07:57:13.007Z,99893.00
2023-05-15T07:59:40.404Z,99891.00
2023-05-15T08:02:07.780Z,99888.00
2023-05-15T08:04:35.039Z,99888.00
2023-05-15T08:07:02.252Z,99876.00
2023-05-15T08:09:29.561Z,99882.00
2023-05-15T08:11:57.521Z,99879.00
2023-05-15T08:14:24.725Z,99879.00
2023-05-15T08:16:51.802Z,99885.00
2023-05-15T08:19:19.468Z,99877.00
2023-05-15T08:21:46.599Z,99853.00
2023-05-15T08:24:13.872Z,99876.00
2023-05-15T08:26:40.951Z,99874.00
2023-05-15T08:29:08.071Z,99879.00
2023-05-15T08:31:35.281Z,99875.00
2023-05-15T08:34:02.554Z,99872.00
2023-05-15T08:36:30.095Z,99872.00
2023-05-15T08:38:57.381Z,99867.00
2023-05-15T08:41:41.227Z,99855.00
2023-05-15T08:44:11.235Z,99856.00
2023-05-15T08:46:39.245Z,99844.00
2023-05-15T08:49:19.542Z,99844.00
2023-05-15T08:51:48.164Z,99860.00
2023-05-15T08:54:16.476Z,99862.00
2023-05-15T08:56:47.286Z,99861.00
2023-05-15T08:59:14.468Z,99852.00
2023-05-15T09:01:41.630Z,99835.00
2023-05-15T09:04:09.178Z,99835.00
2023-05-15T09:06:37.642Z,99845.00
2023-05-15T09:09:05.913Z,99842.00
2023-05-15T09:11:33.878Z,99844.00
2023-05-15T09:14:01.134Z,99847.00
2023-05-15T09:16:28.556Z,99853.00
2023-05-15T09:18:56.137Z,99848.00
2023-05-15T09:21:29.948Z,99857.00
2023-05-15T09:24:24.762Z,99860.00
2023-05-15T09:27:07.284Z,99870.00
2023-05-15T09:29:37.447Z,99849.00
2023-05-15T09:32:11.026Z,99865.00
2023-05-15T09:34:43.065Z,99847.00
2023-05-15T09:37:29.078Z,99842.00
2023-05-15T09:40:06.656Z,99836.00
2023-05-15T09:42:36.651Z,99839.00
2023-05-15T09:45:04.343Z,99830.00
2023-05-15T09:47:32.201Z,99810.00
2023-05-15T09:49:59.747Z,99807.00
2023-05-15T09:52:30.308Z,99781.00
2023-05-15T09:54:58.157Z,99775.00
2023-05-15T09:57:25.316Z,99779.00
2023-05-15T09:59:52.360Z,99784.00
2023-05-15T10:02:34.986Z,99769.00
2023-05-15T10:05:02.251Z,99759.00
2023-05-15T10:07:35.011Z,99742.00
2023-05-15T10:10:05.477Z,99724.00
2023-05-15T10:12:36.985Z,99730.00
2023-05-15T10:15:05.992Z,99729.00
2023-05-15T10:17:36.624Z,99735.00
2023-05-15T10:20:07.172Z,99724.00
2023-05-15T10:22:40.756Z,99732.00
2023-05-15T10:25:24.977Z,99728.00
2023-05-15T10:27:53.575Z,99725.00
2023-05-15T10:30:22.192Z,99713.00
2023-05-15T10:32:50.456Z,99727.00
2023-05-15T10:35:18.660Z,99705.00
2023-05-15T10:37:49.857Z,99713.00
2023-05-15T10:40:17.928Z,99700.00
2023-05-15T10:42:50.122Z,99712.00
2023-05-15T10:45:17.551Z,99706.00
2023-05-15T10:47:46.336Z,99687.00
2023-05-15T10:50:14.452Z,99681.00
2023-05-15T10:52:43.109Z,99669.00
2023-05-15T10:55:17.942Z,99669.00
2023-05-15T10:57:48.691Z,99671.00
2023-05-15T11:00:28.950Z,99665.00
2023-05-15T11:02:57.424Z,99646.00
2023-05-15T11:05:25.789Z,99639.00
2023-05-15T11:08:26.331Z,99633.00
2023-05-15T11:10:54.524Z,99636.00
2023-05-15T11:13:22.004Z,99625.00
2023-05-15T11:15:49.414Z,99621.00
2023-05-15T11:18:17.187Z,99617.00
2023-05-15T11:20:50.668Z,99616.00
2023-05-15T11:23:22.660Z,99611.00
2023-05-15T11:25:59.058Z,99615.00
2023-05-15T11:28:29.984Z,99599.00
2023-05-15T11:31:07.218Z,99599.00
2023-05-15T11:33:34.397Z,99592.00
2023-05-15T11:36:05.565Z,99592.00
2023-05-15T11:38:40.162Z,99584.00
2023-05-15T11:41:19.761Z,99579.00
2023-05-15T11:43:48.716Z,99579.00
2023-05-15T11:46:16.572Z,99580.00
2023-05-15T11:48:49.484Z,99575.00
2023-05-15T11:51:25.217Z,99580.00
2023-05-15T11:53:56.778Z,99577.00
2023-05-15T11:56:29.137Z,99581.00
2023-05-15T11:58:58.891Z,99578.00
2023-05-15T12:01:26.210Z,99577.00
2023-05-15T12:03:55.132Z,99577.00
2023-05-15T12:06:22.999Z,99572.00
2023-05-15T12:08:54.363Z,99548.00
2023-05-15T12:11:25.566Z,99571.00
2023-05-15T12:13:54.813Z,99574.00
2023-05-15T12:16:28.614Z,99572.00
2023-05-15T12:18:58.591Z,99579.00
2023-05-15T12:21:31.662Z,99576.00
2023-05-15T12:24:07.842Z,99581.00
2023-05-15T12:26:36.666Z,99563.00
2023-05-15T12:29:05.456Z,99563.00
2023-05-15T12:31:35.857Z,99555.00
2023-05-15T12:34:03.204Z,99560.00
2023-05-15T12:36:31.298Z,99533.00
2023-05-15T12:38:59.085Z,99529.00
2023-05-15T12:41:29.865Z,99532.00
2023-05-15T12:43:56.872Z,99536.00
2023-05-15T12:46:30.495Z,99538.00
2023-05-15T12:49:01.458Z,99530.00
2023-05-15T12:51:29.952Z,99534.00
2023-05-15T12:54:00.372Z,99521.00
2023-05-15T12:56:30.632Z,99520.00
2023-05-15T12:58:57.744Z,99502.00
2023-05-15T13:01:24.933Z,99509.00
2023-05-15T13:03:53.138Z,99496.00
2023-05-15T13:06:23.785Z,99483.00
2023-05-15T13:08:51.141Z,99487.00
2023-05-15T13:11:19.638Z,99481.00
2023-05-15T13:13:50.602Z,99474.00
2023-05-15T13:16:24.643Z,99463.00
2023-05-15T13:18:52.268Z,99454.00
2023-05-15T13:21:19.989Z,99455.00
2023-05-15T13:23:47.154Z,99455.00
2023-05-15T13:26:14.370Z,99445.00
2023-05-15T13:28:41.301Z,99439.00
2023-05-15T13:31:08.345Z,99441.00
2023-05-15T13:33:36.137Z,99432.00
2023-05-15T13:36:03.698Z,99435.00
2023-05-15T13:38:30.780Z,99423.00
2023-05-15T13:40:58.487Z,99404.00
2023-05-15T13:43:26.728Z,99423.00
2023-05-15T13:45:54.768Z,99411.00
2023-05-15T13:48:22.264Z,99408.00
2023-05-15T13:50:49.485Z,99407.00
2023-05-15T13:53:17.146Z,99397.00
2023-05-15T13:55:46.064Z,99394.00
2023-05-15T13:58:14.166Z,99378.00
2023-05-15T14:00:44.667Z,99313.00
2023-05-15T14:03:14.947Z,99380.00
2023-05-15T14:05:42.502Z,99382.00
2023-05-15T14:08:10.076Z,99373.00
2023-05-15T14:10:37.503Z,99371.00
2023-05-15T14:13:04.686Z,99369.00
2023-05-15T14:15:32.091Z,99367.00
2023-05-15T14:17:59.568Z,99320.00
2023-05-15T14:20:27.497Z,99363.00
2023-05-15T14:22:55.060Z,99363.00
2023-05-15T14:25:22.397Z,99357.00
2023-05-15T14:27:49.455Z,99348.00
2023-05-15T14:30:16.563Z,99351.00
2023-05-15T14:32:44.249Z,99347.00
2023-05-15T14:35:11.318Z,99341.00
2023-05-15T14:37:38.487Z,99341.00
2023-05-15T14:40:08.351Z,99342.00
2023-05-15T14:42:35.696Z,99341.00
2023-05-15T14:45:03.781Z,99342.00
2023-05-15T14:47:33.753Z,99339.00
2023-05-15T14:50:01.277Z,99328.00
2023-05-15T14:52:28.526Z,99332.00
2023-05-15T14:55:07.798Z,99329.00
2023-05-15T14:57:36.152Z,99321.00
2023-05-15T15:00:05.977Z,99321.00
2023-05-15T15:02:33.377Z,99321.00
2023-05-15T15:05:00.999Z,99316.00
2023-05-15T15:07:30.793Z,99313.00
2023-05-15T15:09:58.954Z,99307.00
2023-05-15T15:12:26.914Z,99304.00
2023-05-15T15:14:53.965Z,99296.00
2023-05-15T15:17:21.523Z,99292.00
2023-05-15T15:19:48.663Z,99288.00
2023-05-15T15:22:15.954Z,99285.00
2023-05-15T15:24:43.450Z,99287.00
2023-05-15T15:27:10.445Z,99285.00
2023-05-15T15:29:37.511Z,99275.00
2023-05-15T15:32:04.987Z,99273.00
2023-05-15T15:34:32.116Z,99261.00
2023-05-15T15:36:59.332Z,99262.00
2023-05-15T15:39:26.920Z,99260.00
2023-05-15T15:41:54.939Z,99253.00
2023-05-15T15:44:23.508Z,99256.00
2023-05-15T15:46:50.451Z,99250.00
2023-05-15T15:49:17.417Z,99255.00
2023-05-15T15:51:45.711Z,99244.00
2023-05-15T15:54:13.432Z,99239.00
2023-05-15T15:56:41.659Z,99234.00
2023-05-15T15:59:09.034Z,99226.00
2023-05-15T16:01:36.108Z,99222.00
2023-05-15T16:04:03.719Z,99215.00
2023-05-15T16:06:31.739Z,99222.00
2023-05-15T16:08:58.867Z,99223.00
2023-05-15T16:11:26.202Z,99218.00
2023-05-15T16:13:53.321Z,99211.00
2023-05-15T16:16:20.505Z,99195.00
2023-05-15T16:18:48.107Z,99216.00
2023-05-15T16:21:15.867Z,99211.00
2023-05-15T16:23:43.941Z,99215.00
2023-05-15T16:26:11.624Z,99211.00
2023-05-15T16:28:38.667Z,99210.00
2023-05-15T16:31:05.839Z,99204.00
2023-05-15T16:33:33.834Z,99204.00
2023-05-15T16:36:01.021Z,99188.00
2023-05-15T16:38:28.093Z,99203.00
2023-05-15T16:40:55.128Z,99203.00
2023-05-15T16:43:22.324Z,99194.00
2023-05-15T16:45:49.623Z,99201.00
2023-05-15T16:48:16.771Z,99190.00
2023-05-15T16:50:44.349Z,99193.00
2023-05-15T16:53:11.996Z,99193.00
2023-05-15T16:55:39.599Z,99193.00
2023-05-15T16:58:06.941Z,99200.00
2023-05-15T17:00:34.008Z,99193.00
2023-05-15T17:03:01.319Z,99184.00
2023-05-15T17:05:28.705Z,99194.00
2023-05-15T17:07:55.946Z,99192.00
2023-05-15T17:10:23.415Z,99188.00
2023-05-15T17:12:51.052Z,99191.00
2023-05-15T17:15:18.275Z,99193.00
2023-05-15T17:17:46.452Z,99185.00
2023-05-15T17:20:13.643Z,99193.00
2023-05-15T17:22:41.064Z,99189.00
2023-05-15T17:25:08.678Z,99195.00
2023-05-15T17:27:39.970Z,99138.00
2023-05-15T17:30:11.682Z,99191.00
2023-05-15T17:32:40.117Z,99189.00
2023-05-15T17:35:08.238Z,99192.00
2023-05-15T17:37:35.795Z,99183.00
2023-05-15T17:40:02.954Z,99189.00
2023-05-15T17:42:30.191Z,99182.00
2023-05-15T17:44:57.881Z,99182.00
2023-05-15T17:47:25.263Z,99174.00
2023-05-15T17:49:53.101Z,99180.00
2023-05-15T17:52:20.724Z,99178.00
2023-05-15T17:54:47.835Z,99176.00
2023-05-15T17:57:16.326Z,99173.00
2023-05-15T17:59:43.528Z,99176.00
2023-05-15T18:02:10.598Z,99170.00
2023-05-15T18:04:38.884Z,99174.00
2023-05-15T18:07:06.640Z,99169.00
2023-05-15T18:09:34.099Z,99167.00
2023-05-15T18:12:01.034Z,99173.00
2023-05-15T18:14:28.092Z,99170.00
2023-05-15T18:16:56.362Z,99166.00
2023-05-15T18:19:23.614Z,99168.00
2023-05-15T18:21:51.084Z,99172.00
2023-05-15T18:24:18.310Z,99164.00
2023-05-15T18:26:45.292Z,99158.00
2023-05-15T18:29:13.347Z,99164.00
2023-05-15T18:31:40.546Z,99162.00
2023-05-15T18:34:07.702Z,99162.00
2023-05-15T18:36:34.971Z,99158.00
2023-05-15T18:39:02.861Z,99161.00
2023-05-15T18:41:30.036Z,99155.00
2023-05-15T18:43:57.222Z,99158.00
2023-05-15T18:46:27.254Z,99158.00
2023-05-15T18:48:54.619Z,99161.00
2023-05-15T18:51:23.920Z,99159.00
2023-05-15T18:53:51.357Z,99152.00
2023-05-15T18:56:20.431Z,99153.00
2023-05-15T18:58:47.672Z,99156.00
2023-05-15T19:01:14.803Z,99155.00
2023-05-15T19:03:41.909Z,99150.00
2023-05-15T19:06:09.155Z,99148.00
2023-05-15T19:08:36.231Z,99150.00
2023-05-15T19:11:03.548Z,99147.00
2023-05-15T19:13:33.295Z,99146.00
2023-05-15T19:16:00.587Z,99147.00
2023-05-15T19:18:27.693Z,99143.00
2023-05-15T19:20:56.675Z,99144.00
2023-05-15T19:23:24.613Z,99136.00
2023-05-15T19:25:51.866Z,99151.00
2023-05-15T19:28:19.133Z,99145.00
2023-05-15T19:30:46.366Z,99148.00
2023-05-15T19:33:16.092Z,99144.00
2023-05-15T19:35:44.178Z,99134.00
2023-05-15T19:38:11.516Z,99134.00
2023-05-15T19:40:38.499Z,99129.00
2023-05-15T19:43:05.967Z,99122.00
2023-05-15T19:45:33.171Z,99129.00
2023-05-15T19:48:01.323Z,99129.00
2023-05-15T19:50:33.123Z,99127.00
2023-05-15T19:53:01.452Z,99126.00
2023-05-15T19:55:33.627Z,99114.00
2023-05-15T19:58:01.772Z,99122.00
2023-05-15T20:00:29.190Z,99120.00
2023-05-15T20:02:56.812Z,99107.00
2023-05-15T20:05:24.578Z,99110.00
2023-05-15T20:07:53.096Z,99120.00
2023-05-15T20:10:20.588Z,99105.00
2023-05-15T20:12:49.303Z,99113.00
2023-05-15T20:15:16.934Z,99122.00
2023-05-15T20:17:45.085Z,99107.00
2023-05-15T20:20:14.285Z,99111.00
2023-05-15T20:22:44.533Z,99111.00
2023-05-15T20:25:11.845Z,99109.00
2023-05-15T20:27:39.297Z,99111.00
2023-05-15T20:30:07.448Z,99116.00
2023-05-15T20:32:35.227Z,99112.00
2023-05-15T20:35:03.061Z,99112.00
2023-05-15T20:37:33.329Z,99107.00
2023-05-15T20:40:00.864Z,99114.00
2023-05-15T20:42:28.568Z,99114.00
2023-05-15T20:44:55.956Z,99110.00
2023-05-15T20:47:23.432Z,99109.00
2023-05-15T20:49:50.646Z,99104.00
2023-05-15T20:52:18.213Z,99109.00
2023-05-15T20:54:45.249Z,99094.00
2023-05-15T20:57:12.336Z,99107.00
2023-05-15T20:59:39.417Z,99108.00
2023-05-15T21:02:07.203Z,99106.00
2023-05-15T21:04:36.290Z,99101.00
2023-05-15T21:07:04.156Z,99106.00
2023-05-15T21:09:31.715Z,99099.00
2023-05-15T21:11:59.869Z,99096.00
2023-05-15T21:14:26.977Z,99096.00
2023-05-15T21:16:54.816Z,99098.00
2023-05-15T21:19:22.411Z,99080.00
2023-05-15T21:21:49.552Z,99089.00
2023-05-15T21:24:16.986Z,99086.00
2023-05-15T21:26:44.198Z,99085.00
2023-05-15T21:29:11.304Z,99091.00
2023-05-15T21:31:38.544Z,99095.00
2023-05-15T21:34:05.727Z,99088.00
2023-05-15T21:36:34.286Z,99085.00
2023-05-15T21:39:01.321Z,99090.00
2023-05-15T21:41:28.513Z,99081.00
2023-05-15T21:43:55.549Z,99084.00
2023-05-15T21:46:22.723Z,99080.00
2023-05-15T21:48:49.847Z,99077.00
2023-05-15T21:51:17.404Z,99067.00
2023-05-15T21:53:44.615Z,99087.00
2023-05-15T21:56:11.626Z,99076.00
2023-05-15T21:58:38.580Z,99065.00
2023-05-15T22:01:05.827Z,99068.00
2023-05-15T22:03:33.037Z,99075.00
2023-05-15T22:06:00.322Z,99076.00
2023-05-15T22:08:27.550Z,99063.00
2023-05-15T22:10:54.593Z,99061.00
2023-05-15T22:13:21.685Z,99068.00
2023-05-15T22:15:48.736Z,99062.00
2023-05-15T22:18:15.776Z,99058.00
2023-05-15T22:20:44.662Z,99069.00
2023-05-15T22:23:11.668Z,99065.00
2023-05-15T22:25:38.946Z,99066.00
2023-05-15T22:28:06.023Z,99067.00
2023-05-15T22:30:33.104Z,99065.00
2023-05-15T22:33:00.289Z,99068.00
2023-05-15T22:35:28.318Z,99067.00
2023-05-15T22:37:55.639Z,99065.00
2023-05-15T22:40:22.775Z,99066.00
2023-05-15T22:42:50.393Z,99067.00
2023-05-15T22:45:18.591Z,99062.00
2023-05-15T22:47:46.144Z,99066.00
2023-05-15T22:50:13.230Z,99059.00
2023-05-15T22:52:40.337Z,99060.00
2023-05-15T22:55:08.220Z,99067.00
2023-05-15T22:57:36.349Z,99050.00
2023-05-15T23:00:06.245Z,99059.00
2023-05-15T23:02:33.576Z,99054.00
2023-05-15T23:05:01.368Z,99055.00
2023-05-15T23:07:28.331Z,99048.00
2023-05-15T23:09:55.718Z,99047.00
2023-05-15T23:12:22.945Z,99044.00
2023-05-15T23:14:50.090Z,99060.00
2023-05-15T23:17:17.243Z,99055.00
2023-05-15T23:19:44.706Z,99047.00
2023-05-15T23:22:12.418Z,99057.00
2023-05-15T23:24:39.437Z,99051.00
2023-05-15T23:27:06.628Z,99049.00
2023-05-15T23:29:33.934Z,99054.00
2023-05-15T23:32:01.182Z,99044.00
2023-05-15T23:34:29.253Z,99047.00
2023-05-15T23:36:56.302Z,99043.00
2023-05-15T23:39:23.346Z,99063.00
2023-05-15T23:41:50.600Z,99043.00
2023-05-15T23:44:17.645Z,99047.00
2023-05-15T23:46:44.750Z,99047.00
2023-05-15T23:49:11.748Z,99052.00
2023-05-15T23:51:39.240Z,99051.00
2023-05-15T23:54:06.356Z,99050.00
2023-05-15T23:56:33.426Z,99052.00
2023-05-15T23:59:00.839Z,99048.00
